sensor_id;sensor_type;location;lat;lon;timestamp;P1;durP1;ratioP1;P2;durP2;ratioP2
57697;SDS011;43531;52.152;6.366;2023-04-06T00:00:30;10.02;;;7.10;;
57697;SDS011;43531;52.152;6.366;2023-04-06T00:01:02;11.32;;;6.78;;
57697;SDS011;43531;52.152;6.366;2023-04-06T00:01:34;8.70;;;6.07;;
57697;SDS011;43531;52.152;6.366;2023-04-06T00:02:05;13.02;;;8.40;;
57697;SDS011;43531;52.152;6.366;2023-04-06T00:02:37;9.95;;;6.90;;
57697;SDS011;43531;52.152;6.366;2023-04-06T00:03:08;9.13;;;5.90;;
57697;SDS011;43531;52.152;6.366;2023-04-06T00:03:40;8.20;;;5.93;;
57697;SDS011;43531;52.152;6.366;2023-04-06T00:04:12;10.77;;;6.80;;
57697;SDS011;43531;52.152;6.366;2023-04-06T00:04:44;9.30;;;6.63;;
57697;SDS011;43531;52.152;6.366;2023-04-06T00:05:16;10.77;;;7.00;;
57697;SDS011;43531;52.152;6.366;2023-04-06T00:05:48;8.38;;;6.22;;
57697;SDS011;43531;52.152;6.366;2023-04-06T00:06:20;9.68;;;6.80;;
57697;SDS011;43531;52.152;6.366;2023-04-06T00:06:51;11.10;;;7.53;;
57697;SDS011;43531;52.152;6.366;2023-04-06T00:07:23;10.00;;;6.75;;
57697;SDS011;43531;52.152;6.366;2023-04-06T00:07:54;7.30;;;6.20;;
57697;SDS011;43531;52.152;6.366;2023-04-06T00:08:27;10.32;;;6.85;;
57697;SDS011;43531;52.152;6.366;2023-04-06T00:08:59;25.20;;;7.35;;
57697;SDS011;43531;52.152;6.366;2023-04-06T00:09:31;15.57;;;8.00;;
57697;SDS011;43531;52.152;6.366;2023-04-06T00:10:03;12.70;;;8.68;;
57697;SDS011;43531;52.152;6.366;2023-04-06T00:10:35;12.07;;;7.22;;
57697;SDS011;43531;52.152;6.366;2023-04-06T00:11:08;11.32;;;7.88;;
57697;SDS011;43531;52.152;6.366;2023-04-06T00:11:40;10.50;;;7.47;;
57697;SDS011;43531;52.152;6.366;2023-04-06T00:12:12;9.68;;;6.90;;
57697;SDS011;43531;52.152;6.366;2023-04-06T00:12:43;8.20;;;6.20;;
57697;SDS011;43531;52.152;6.366;2023-04-06T00:13:15;12.85;;;7.25;;
57697;SDS011;43531;52.152;6.366;2023-04-06T00:13:46;8.45;;;6.70;;
57697;SDS011;43531;52.152;6.366;2023-04-06T00:14:18;7.20;;;6.35;;
57697;SDS011;43531;52.152;6.366;2023-04-06T00:14:50;10.40;;;6.55;;
57697;SDS011;43531;52.152;6.366;2023-04-06T00:15:21;10.45;;;6.72;;
57697;SDS011;43531;52.152;6.366;2023-04-06T00:15:53;12.38;;;7.68;;
57697;SDS011;43531;52.152;6.366;2023-04-06T00:16:25;17.88;;;7.40;;
57697;SDS011;43531;52.152;6.366;2023-04-06T00:17:00;10.45;;;7.10;;
57697;SDS011;43531;52.152;6.366;2023-04-06T00:17:31;11.43;;;6.45;;
57697;SDS011;43531;52.152;6.366;2023-04-06T00:18:03;7.85;;;6.03;;
57697;SDS011;43531;52.152;6.366;2023-04-06T00:18:35;9.77;;;6.82;;
57697;SDS011;43531;52.152;6.366;2023-04-06T00:19:06;9.52;;;7.30;;
57697;SDS011;43531;52.152;6.366;2023-04-06T00:19:38;9.52;;;7.53;;
57697;SDS011;43531;52.152;6.366;2023-04-06T00:20:10;8.05;;;6.72;;
57697;SDS011;43531;52.152;6.366;2023-04-06T00:20:42;11.30;;;7.90;;
57697;SDS011;43531;52.152;6.366;2023-04-06T00:21:14;10.85;;;7.03;;
57697;SDS011;43531;52.152;6.366;2023-04-06T00:21:46;9.80;;;7.07;;
57697;SDS011;43531;52.152;6.366;2023-04-06T00:22:17;9.68;;;7.80;;
57697;SDS011;43531;52.152;6.366;2023-04-06T00:22:49;14.00;;;7.75;;
57697;SDS011;43531;52.152;6.366;2023-04-06T00:23:25;11.48;;;8.05;;
57697;SDS011;43531;52.152;6.366;2023-04-06T00:23:56;12.02;;;10.43;;
57697;SDS011;43531;52.152;6.366;2023-04-06T00:24:28;11.77;;;9.57;;
57697;SDS011;43531;52.152;6.366;2023-04-06T00:24:59;12.38;;;8.95;;
57697;SDS011;43531;52.152;6.366;2023-04-06T00:25:31;11.45;;;9.30;;
57697;SDS011;43531;52.152;6.366;2023-04-06T00:26:02;11.32;;;9.45;;
57697;SDS011;43531;52.152;6.366;2023-04-06T00:26:34;11.63;;;9.70;;
57697;SDS011;43531;52.152;6.366;2023-04-06T00:27:06;9.93;;;8.02;;
57697;SDS011;43531;52.152;6.366;2023-04-06T00:27:37;10.10;;;8.93;;
57697;SDS011;43531;52.152;6.366;2023-04-06T00:28:09;10.02;;;8.52;;
57697;SDS011;43531;52.152;6.366;2023-04-06T00:28:41;10.23;;;9.05;;
57697;SDS011;43531;52.152;6.366;2023-04-06T00:29:12;13.13;;;9.63;;
57697;SDS011;43531;52.152;6.366;2023-04-06T00:29:44;12.20;;;9.32;;
57697;SDS011;43531;52.152;6.366;2023-04-06T00:30:16;15.82;;;9.32;;
57697;SDS011;43531;52.152;6.366;2023-04-06T00:30:49;9.60;;;8.43;;
57697;SDS011;43531;52.152;6.366;2023-04-06T00:31:21;12.52;;;9.32;;
57697;SDS011;43531;52.152;6.366;2023-04-06T00:31:53;11.02;;;9.05;;
57697;SDS011;43531;52.152;6.366;2023-04-06T00:32:24;14.32;;;9.65;;
57697;SDS011;43531;52.152;6.366;2023-04-06T00:32:56;15.20;;;9.35;;
57697;SDS011;43531;52.152;6.366;2023-04-06T00:33:27;11.00;;;9.27;;
57697;SDS011;43531;52.152;6.366;2023-04-06T00:33:59;11.18;;;8.93;;
57697;SDS011;43531;52.152;6.366;2023-04-06T00:34:31;10.90;;;9.13;;
57697;SDS011;43531;52.152;6.366;2023-04-06T00:35:03;10.10;;;8.05;;
57697;SDS011;43531;52.152;6.366;2023-04-06T00:35:35;11.15;;;9.40;;
57697;SDS011;43531;52.152;6.366;2023-04-06T00:36:07;14.55;;;9.85;;
57697;SDS011;43531;52.152;6.366;2023-04-06T00:36:38;12.07;;;8.88;;
57697;SDS011;43531;52.152;6.366;2023-04-06T00:37:11;16.55;;;11.07;;
57697;SDS011;43531;52.152;6.366;2023-04-06T00:37:42;16.75;;;12.05;;
57697;SDS011;43531;52.152;6.366;2023-04-06T00:38:14;19.60;;;13.85;;
57697;SDS011;43531;52.152;6.366;2023-04-06T00:38:46;14.80;;;11.77;;
57697;SDS011;43531;52.152;6.366;2023-04-06T00:39:18;12.15;;;10.55;;
57697;SDS011;43531;52.152;6.366;2023-04-06T00:39:51;14.95;;;11.27;;
57697;SDS011;43531;52.152;6.366;2023-04-06T00:40:23;22.88;;;12.38;;
57697;SDS011;43531;52.152;6.366;2023-04-06T00:40:54;17.20;;;12.68;;
57697;SDS011;43531;52.152;6.366;2023-04-06T00:41:27;18.83;;;14.52;;
57697;SDS011;43531;52.152;6.366;2023-04-06T00:41:58;15.27;;;13.20;;
57697;SDS011;43531;52.152;6.366;2023-04-06T00:42:31;19.27;;;12.38;;
57697;SDS011;43531;52.152;6.366;2023-04-06T00:43:03;20.27;;;15.43;;
57697;SDS011;43531;52.152;6.366;2023-04-06T00:43:34;14.15;;;11.32;;
57697;SDS011;43531;52.152;6.366;2023-04-06T00:44:06;12.90;;;10.48;;
57697;SDS011;43531;52.152;6.366;2023-04-06T00:44:38;12.32;;;10.82;;
57697;SDS011;43531;52.152;6.366;2023-04-06T00:45:10;17.25;;;10.52;;
57697;SDS011;43531;52.152;6.366;2023-04-06T00:45:43;15.68;;;12.10;;
57697;SDS011;43531;52.152;6.366;2023-04-06T00:46:14;22.02;;;12.13;;
57697;SDS011;43531;52.152;6.366;2023-04-06T00:46:46;16.33;;;12.15;;
57697;SDS011;43531;52.152;6.366;2023-04-06T00:47:18;16.58;;;12.18;;
57697;SDS011;43531;52.152;6.366;2023-04-06T00:47:49;19.95;;;11.93;;
57697;SDS011;43531;52.152;6.366;2023-04-06T00:48:21;16.77;;;12.25;;
57697;SDS011;43531;52.152;6.366;2023-04-06T00:48:53;21.67;;;12.20;;
57697;SDS011;43531;52.152;6.366;2023-04-06T00:49:24;16.00;;;13.00;;
57697;SDS011;43531;52.152;6.366;2023-04-06T00:49:56;16.50;;;12.55;;
57697;SDS011;43531;52.152;6.366;2023-04-06T00:50:28;15.43;;;12.10;;
57697;SDS011;43531;52.152;6.366;2023-04-06T00:51:00;21.35;;;12.23;;
57697;SDS011;43531;52.152;6.366;2023-04-06T00:51:32;16.15;;;10.95;;
57697;SDS011;43531;52.152;6.366;2023-04-06T00:52:03;13.93;;;12.30;;
57697;SDS011;43531;52.152;6.366;2023-04-06T00:52:35;16.95;;;12.75;;
57697;SDS011;43531;52.152;6.366;2023-04-06T00:53:09;19.23;;;12.98;;
57697;SDS011;43531;52.152;6.366;2023-04-06T00:53:41;15.55;;;11.75;;
57697;SDS011;43531;52.152;6.366;2023-04-06T00:54:14;18.48;;;12.90;;
57697;SDS011;43531;52.152;6.366;2023-04-06T00:54:46;17.65;;;12.63;;
57697;SDS011;43531;52.152;6.366;2023-04-06T00:55:19;19.02;;;13.02;;
57697;SDS011;43531;52.152;6.366;2023-04-06T00:55:51;17.15;;;12.05;;
57697;SDS011;43531;52.152;6.366;2023-04-06T00:56:23;16.77;;;12.75;;
57697;SDS011;43531;52.152;6.366;2023-04-06T00:56:58;14.60;;;12.32;;
57697;SDS011;43531;52.152;6.366;2023-04-06T00:57:31;17.85;;;13.30;;
57697;SDS011;43531;52.152;6.366;2023-04-06T00:58:03;13.85;;;11.45;;
57697;SDS011;43531;52.152;6.366;2023-04-06T00:58:41;18.48;;;12.38;;
57697;SDS011;43531;52.152;6.366;2023-04-06T00:59:13;16.75;;;12.68;;
57697;SDS011;43531;52.152;6.366;2023-04-06T00:59:45;16.80;;;12.30;;
57697;SDS011;43531;52.152;6.366;2023-04-06T01:00:17;15.57;;;11.63;;
57697;SDS011;43531;52.152;6.366;2023-04-06T01:00:50;13.73;;;11.70;;
57697;SDS011;43531;52.152;6.366;2023-04-06T01:01:25;18.75;;;12.68;;
57697;SDS011;43531;52.152;6.366;2023-04-06T01:02:01;15.60;;;11.50;;
57697;SDS011;43531;52.152;6.366;2023-04-06T01:03:16;14.57;;;10.77;;
57697;SDS011;43531;52.152;6.366;2023-04-06T01:03:48;15.75;;;10.93;;
57697;SDS011;43531;52.152;6.366;2023-04-06T01:04:22;10.25;;;8.60;;
57697;SDS011;43531;52.152;6.366;2023-04-06T01:04:55;14.70;;;9.30;;
57697;SDS011;43531;52.152;6.366;2023-04-06T01:05:35;14.52;;;9.88;;
57697;SDS011;43531;52.152;6.366;2023-04-06T01:06:17;10.98;;;9.68;;
57697;SDS011;43531;52.152;6.366;2023-04-06T01:06:55;11.63;;;9.00;;
57697;SDS011;43531;52.152;6.366;2023-04-06T01:07:32;12.57;;;9.23;;
57697;SDS011;43531;52.152;6.366;2023-04-06T01:08:12;13.30;;;9.38;;
57697;SDS011;43531;52.152;6.366;2023-04-06T01:08:44;15.48;;;8.85;;
57697;SDS011;43531;52.152;6.366;2023-04-06T01:09:24;14.68;;;9.45;;
57697;SDS011;43531;52.152;6.366;2023-04-06T01:09:57;12.13;;;9.25;;
57697;SDS011;43531;52.152;6.366;2023-04-06T01:10:31;11.45;;;9.88;;
57697;SDS011;43531;52.152;6.366;2023-04-06T01:11:09;14.00;;;9.52;;
57697;SDS011;43531;52.152;6.366;2023-04-06T01:11:41;11.95;;;8.95;;
57697;SDS011;43531;52.152;6.366;2023-04-06T01:12:16;16.88;;;9.57;;
57697;SDS011;43531;52.152;6.366;2023-04-06T01:12:48;11.27;;;9.80;;
57697;SDS011;43531;52.152;6.366;2023-04-06T01:13:28;12.52;;;9.13;;
57697;SDS011;43531;52.152;6.366;2023-04-06T01:14:04;11.52;;;9.63;;
57697;SDS011;43531;52.152;6.366;2023-04-06T01:15:00;10.48;;;8.75;;
57697;SDS011;43531;52.152;6.366;2023-04-06T01:15:35;13.65;;;9.05;;
57697;SDS011;43531;52.152;6.366;2023-04-06T01:16:11;10.90;;;9.40;;
57697;SDS011;43531;52.152;6.366;2023-04-06T01:17:01;12.82;;;9.55;;
57697;SDS011;43531;52.152;6.366;2023-04-06T01:17:35;11.73;;;8.88;;
57697;SDS011;43531;52.152;6.366;2023-04-06T01:18:13;11.52;;;9.20;;
57697;SDS011;43531;52.152;6.366;2023-04-06T01:18:52;14.77;;;9.15;;
57697;SDS011;43531;52.152;6.366;2023-04-06T01:19:27;14.45;;;10.70;;
57697;SDS011;43531;52.152;6.366;2023-04-06T01:20:00;17.77;;;10.70;;
57697;SDS011;43531;52.152;6.366;2023-04-06T01:20:34;11.00;;;9.52;;
57697;SDS011;43531;52.152;6.366;2023-04-06T01:21:06;15.00;;;11.52;;
57697;SDS011;43531;52.152;6.366;2023-04-06T01:21:40;11.15;;;9.57;;
57697;SDS011;43531;52.152;6.366;2023-04-06T01:22:30;12.63;;;11.15;;
57697;SDS011;43531;52.152;6.366;2023-04-06T01:23:05;11.85;;;10.07;;
57697;SDS011;43531;52.152;6.366;2023-04-06T01:23:37;13.07;;;10.73;;
57697;SDS011;43531;52.152;6.366;2023-04-06T01:24:09;13.07;;;10.68;;
57697;SDS011;43531;52.152;6.366;2023-04-06T01:25:00;12.73;;;10.48;;
57697;SDS011;43531;52.152;6.366;2023-04-06T01:25:37;15.30;;;9.70;;
57697;SDS011;43531;52.152;6.366;2023-04-06T01:26:12;15.48;;;10.20;;
57697;SDS011;43531;52.152;6.366;2023-04-06T01:26:44;13.73;;;10.35;;
57697;SDS011;43531;52.152;6.366;2023-04-06T01:27:16;13.82;;;10.60;;
57697;SDS011;43531;52.152;6.366;2023-04-06T01:27:54;14.38;;;11.20;;
57697;SDS011;43531;52.152;6.366;2023-04-06T01:28:28;10.85;;;9.30;;
57697;SDS011;43531;52.152;6.366;2023-04-06T01:29:17;14.23;;;11.70;;
57697;SDS011;43531;52.152;6.366;2023-04-06T01:29:48;13.82;;;10.75;;
57697;SDS011;43531;52.152;6.366;2023-04-06T01:30:33;14.30;;;10.48;;
57697;SDS011;43531;52.152;6.366;2023-04-06T01:31:11;20.75;;;11.73;;
57697;SDS011;43531;52.152;6.366;2023-04-06T01:31:49;13.02;;;10.93;;
57697;SDS011;43531;52.152;6.366;2023-04-06T01:32:21;21.02;;;11.60;;
57697;SDS011;43531;52.152;6.366;2023-04-06T01:32:55;18.17;;;11.70;;
57697;SDS011;43531;52.152;6.366;2023-04-06T01:33:38;14.45;;;11.13;;
57697;SDS011;43531;52.152;6.366;2023-04-06T01:34:13;14.20;;;11.60;;
57697;SDS011;43531;52.152;6.366;2023-04-06T01:34:45;13.77;;;11.98;;
57697;SDS011;43531;52.152;6.366;2023-04-06T01:35:17;15.48;;;11.35;;
57697;SDS011;43531;52.152;6.366;2023-04-06T01:36:00;11.50;;;9.70;;
57697;SDS011;43531;52.152;6.366;2023-04-06T01:36:32;17.80;;;12.02;;
57697;SDS011;43531;52.152;6.366;2023-04-06T01:37:23;13.40;;;11.23;;
57697;SDS011;43531;52.152;6.366;2023-04-06T01:37:58;17.05;;;10.88;;
57697;SDS011;43531;52.152;6.366;2023-04-06T01:38:34;15.63;;;10.88;;
57697;SDS011;43531;52.152;6.366;2023-04-06T01:39:06;12.68;;;10.95;;
57697;SDS011;43531;52.152;6.366;2023-04-06T01:39:41;12.70;;;10.88;;
57697;SDS011;43531;52.152;6.366;2023-04-06T01:40:17;17.70;;;11.68;;
57697;SDS011;43531;52.152;6.366;2023-04-06T01:40:53;16.73;;;11.45;;
57697;SDS011;43531;52.152;6.366;2023-04-06T01:41:26;13.48;;;11.23;;
57697;SDS011;43531;52.152;6.366;2023-04-06T01:41:59;19.25;;;12.10;;
57697;SDS011;43531;52.152;6.366;2023-04-06T01:42:31;12.95;;;11.45;;
57697;SDS011;43531;52.152;6.366;2023-04-06T01:43:03;12.48;;;11.05;;
57697;SDS011;43531;52.152;6.366;2023-04-06T01:43:40;13.48;;;10.43;;
57697;SDS011;43531;52.152;6.366;2023-04-06T01:44:17;19.77;;;11.95;;
57697;SDS011;43531;52.152;6.366;2023-04-06T01:44:54;11.60;;;10.40;;
57697;SDS011;43531;52.152;6.366;2023-04-06T01:45:27;14.80;;;10.18;;
57697;SDS011;43531;52.152;6.366;2023-04-06T01:46:04;15.85;;;10.73;;
57697;SDS011;43531;52.152;6.366;2023-04-06T01:46:43;15.20;;;11.82;;
57697;SDS011;43531;52.152;6.366;2023-04-06T01:47:18;16.15;;;12.30;;
57697;SDS011;43531;52.152;6.366;2023-04-06T01:47:50;16.58;;;11.75;;
57697;SDS011;43531;52.152;6.366;2023-04-06T01:48:25;14.43;;;11.75;;
57697;SDS011;43531;52.152;6.366;2023-04-06T01:48:57;14.05;;;12.10;;
57697;SDS011;43531;52.152;6.366;2023-04-06T01:49:38;14.02;;;10.13;;
57697;SDS011;43531;52.152;6.366;2023-04-06T01:50:10;14.05;;;11.23;;
57697;SDS011;43531;52.152;6.366;2023-04-06T01:50:46;15.10;;;10.70;;
57697;SDS011;43531;52.152;6.366;2023-04-06T01:51:23;15.80;;;11.30;;
57697;SDS011;43531;52.152;6.366;2023-04-06T01:52:01;14.80;;;11.38;;
57697;SDS011;43531;52.152;6.366;2023-04-06T01:52:34;12.35;;;10.55;;
57697;SDS011;43531;52.152;6.366;2023-04-06T01:53:06;16.27;;;13.80;;
57697;SDS011;43531;52.152;6.366;2023-04-06T01:53:38;13.05;;;11.13;;
57697;SDS011;43531;52.152;6.366;2023-04-06T01:54:11;15.52;;;12.32;;
57697;SDS011;43531;52.152;6.366;2023-04-06T01:54:58;15.82;;;12.52;;
57697;SDS011;43531;52.152;6.366;2023-04-06T01:55:45;13.32;;;10.85;;
57697;SDS011;43531;52.152;6.366;2023-04-06T01:56:27;19.02;;;12.75;;
57697;SDS011;43531;52.152;6.366;2023-04-06T01:57:10;16.75;;;10.95;;
57697;SDS011;43531;52.152;6.366;2023-04-06T01:57:56;13.75;;;10.57;;
57697;SDS011;43531;52.152;6.366;2023-04-06T01:58:37;17.27;;;11.25;;
57697;SDS011;43531;52.152;6.366;2023-04-06T01:59:09;16.33;;;11.57;;
57697;SDS011;43531;52.152;6.366;2023-04-06T01:59:45;15.27;;;10.93;;
57697;SDS011;43531;52.152;6.366;2023-04-06T02:00:24;12.57;;;11.02;;
57697;SDS011;43531;52.152;6.366;2023-04-06T02:00:58;14.70;;;10.98;;
57697;SDS011;43531;52.152;6.366;2023-04-06T02:01:33;12.80;;;11.13;;
57697;SDS011;43531;52.152;6.366;2023-04-06T02:02:04;14.50;;;11.27;;
57697;SDS011;43531;52.152;6.366;2023-04-06T02:02:38;17.10;;;11.90;;
57697;SDS011;43531;52.152;6.366;2023-04-06T02:03:15;11.77;;;10.55;;
57697;SDS011;43531;52.152;6.366;2023-04-06T02:03:48;16.88;;;11.07;;
57697;SDS011;43531;52.152;6.366;2023-04-06T02:04:19;15.63;;;12.30;;
57697;SDS011;43531;52.152;6.366;2023-04-06T02:04:57;14.48;;;12.23;;
57697;SDS011;43531;52.152;6.366;2023-04-06T02:05:30;21.15;;;14.02;;
57697;SDS011;43531;52.152;6.366;2023-04-06T02:06:03;16.42;;;11.70;;
57697;SDS011;43531;52.152;6.366;2023-04-06T02:06:39;15.68;;;12.18;;
57697;SDS011;43531;52.152;6.366;2023-04-06T02:07:12;15.23;;;12.25;;
57697;SDS011;43531;52.152;6.366;2023-04-06T02:07:44;17.65;;;11.85;;
57697;SDS011;43531;52.152;6.366;2023-04-06T02:08:19;11.93;;;10.45;;
57697;SDS011;43531;52.152;6.366;2023-04-06T02:08:50;16.13;;;11.65;;
57697;SDS011;43531;52.152;6.366;2023-04-06T02:09:23;14.35;;;11.88;;
57697;SDS011;43531;52.152;6.366;2023-04-06T02:09:55;13.23;;;11.48;;
57697;SDS011;43531;52.152;6.366;2023-04-06T02:10:35;12.70;;;10.68;;
57697;SDS011;43531;52.152;6.366;2023-04-06T02:11:15;14.70;;;11.48;;
57697;SDS011;43531;52.152;6.366;2023-04-06T02:11:51;13.55;;;12.15;;
57697;SDS011;43531;52.152;6.366;2023-04-06T02:12:22;13.20;;;10.63;;
57697;SDS011;43531;52.152;6.366;2023-04-06T02:12:55;16.20;;;11.32;;
57697;SDS011;43531;52.152;6.366;2023-04-06T02:13:30;16.25;;;11.50;;
57697;SDS011;43531;52.152;6.366;2023-04-06T02:14:02;13.55;;;12.13;;
57697;SDS011;43531;52.152;6.366;2023-04-06T02:14:36;15.35;;;11.85;;
57697;SDS011;43531;52.152;6.366;2023-04-06T02:15:08;16.48;;;12.95;;
57697;SDS011;43531;52.152;6.366;2023-04-06T02:15:40;16.23;;;13.25;;
57697;SDS011;43531;52.152;6.366;2023-04-06T02:16:14;16.77;;;13.52;;
57697;SDS011;43531;52.152;6.366;2023-04-06T02:16:48;14.80;;;11.70;;
57697;SDS011;43531;52.152;6.366;2023-04-06T02:17:20;13.10;;;11.10;;
57697;SDS011;43531;52.152;6.366;2023-04-06T02:17:52;13.18;;;11.50;;
57697;SDS011;43531;52.152;6.366;2023-04-06T02:18:24;13.82;;;10.65;;
57697;SDS011;43531;52.152;6.366;2023-04-06T02:18:55;14.45;;;12.13;;
57697;SDS011;43531;52.152;6.366;2023-04-06T02:19:27;14.13;;;11.75;;
57697;SDS011;43531;52.152;6.366;2023-04-06T02:19:59;17.00;;;11.60;;
57697;SDS011;43531;52.152;6.366;2023-04-06T02:20:30;14.50;;;12.32;;
57697;SDS011;43531;52.152;6.366;2023-04-06T02:21:02;15.35;;;12.55;;
57697;SDS011;43531;52.152;6.366;2023-04-06T02:21:34;15.20;;;11.65;;
57697;SDS011;43531;52.152;6.366;2023-04-06T02:22:05;13.75;;;11.70;;
57697;SDS011;43531;52.152;6.366;2023-04-06T02:22:37;14.45;;;11.73;;
57697;SDS011;43531;52.152;6.366;2023-04-06T02:23:08;18.02;;;11.27;;
57697;SDS011;43531;52.152;6.366;2023-04-06T02:23:40;17.95;;;13.10;;
57697;SDS011;43531;52.152;6.366;2023-04-06T02:24:11;18.40;;;13.32;;
57697;SDS011;43531;52.152;6.366;2023-04-06T02:24:43;14.18;;;12.45;;
57697;SDS011;43531;52.152;6.366;2023-04-06T02:25:15;13.50;;;11.98;;
57697;SDS011;43531;52.152;6.366;2023-04-06T02:25:46;14.30;;;11.50;;
57697;SDS011;43531;52.152;6.366;2023-04-06T02:26:18;15.77;;;12.13;;
57697;SDS011;43531;52.152;6.366;2023-04-06T02:26:49;16.48;;;12.65;;
57697;SDS011;43531;52.152;6.366;2023-04-06T02:27:21;13.95;;;12.20;;
57697;SDS011;43531;52.152;6.366;2023-04-06T02:27:53;16.58;;;12.70;;
57697;SDS011;43531;52.152;6.366;2023-04-06T02:28:25;15.02;;;12.30;;
57697;SDS011;43531;52.152;6.366;2023-04-06T02:28:56;14.82;;;12.13;;
57697;SDS011;43531;52.152;6.366;2023-04-06T02:29:28;15.07;;;11.77;;
57697;SDS011;43531;52.152;6.366;2023-04-06T02:30:00;15.95;;;12.93;;
57697;SDS011;43531;52.152;6.366;2023-04-06T02:30:31;19.42;;;14.23;;
57697;SDS011;43531;52.152;6.366;2023-04-06T02:31:04;17.13;;;13.07;;
57697;SDS011;43531;52.152;6.366;2023-04-06T02:31:35;15.95;;;13.18;;
57697;SDS011;43531;52.152;6.366;2023-04-06T02:32:08;15.02;;;12.95;;
57697;SDS011;43531;52.152;6.366;2023-04-06T02:32:40;17.38;;;13.23;;
57697;SDS011;43531;52.152;6.366;2023-04-06T02:33:12;16.75;;;13.00;;
57697;SDS011;43531;52.152;6.366;2023-04-06T02:33:48;12.27;;;10.80;;
57697;SDS011;43531;52.152;6.366;2023-04-06T02:34:20;13.65;;;12.20;;
57697;SDS011;43531;52.152;6.366;2023-04-06T02:34:55;15.65;;;12.10;;
57697;SDS011;43531;52.152;6.366;2023-04-06T02:35:27;16.58;;;11.52;;
57697;SDS011;43531;52.152;6.366;2023-04-06T02:36:00;15.60;;;12.40;;
57697;SDS011;43531;52.152;6.366;2023-04-06T02:36:32;13.02;;;11.05;;
57697;SDS011;43531;52.152;6.366;2023-04-06T02:37:04;13.25;;;10.77;;
57697;SDS011;43531;52.152;6.366;2023-04-06T02:37:36;19.20;;;11.73;;
57697;SDS011;43531;52.152;6.366;2023-04-06T02:38:07;15.77;;;11.15;;
57697;SDS011;43531;52.152;6.366;2023-04-06T02:38:39;14.80;;;11.68;;
57697;SDS011;43531;52.152;6.366;2023-04-06T02:39:11;17.23;;;12.55;;
57697;SDS011;43531;52.152;6.366;2023-04-06T02:39:43;24.40;;;12.05;;
57697;SDS011;43531;52.152;6.366;2023-04-06T02:40:15;14.18;;;11.77;;
57697;SDS011;43531;52.152;6.366;2023-04-06T02:40:46;18.58;;;12.75;;
57697;SDS011;43531;52.152;6.366;2023-04-06T02:41:27;16.80;;;12.00;;
57697;SDS011;43531;52.152;6.366;2023-04-06T02:42:01;18.42;;;13.02;;
57697;SDS011;43531;52.152;6.366;2023-04-06T02:42:33;20.88;;;13.68;;
57697;SDS011;43531;52.152;6.366;2023-04-06T02:43:06;16.60;;;13.38;;
57697;SDS011;43531;52.152;6.366;2023-04-06T02:43:38;15.48;;;12.48;;
57697;SDS011;43531;52.152;6.366;2023-04-06T02:44:18;16.45;;;13.25;;
57697;SDS011;43531;52.152;6.366;2023-04-06T02:44:51;17.13;;;13.48;;
57697;SDS011;43531;52.152;6.366;2023-04-06T02:45:25;18.17;;;14.13;;
57697;SDS011;43531;52.152;6.366;2023-04-06T02:45:58;18.05;;;13.75;;
57697;SDS011;43531;52.152;6.366;2023-04-06T02:46:30;19.13;;;13.48;;
57697;SDS011;43531;52.152;6.366;2023-04-06T02:47:02;14.48;;;12.82;;
57697;SDS011;43531;52.152;6.366;2023-04-06T02:47:34;14.55;;;12.25;;
57697;SDS011;43531;52.152;6.366;2023-04-06T02:48:05;15.60;;;12.93;;
57697;SDS011;43531;52.152;6.366;2023-04-06T02:48:37;15.63;;;12.70;;
57697;SDS011;43531;52.152;6.366;2023-04-06T02:49:09;15.52;;;13.18;;
57697;SDS011;43531;52.152;6.366;2023-04-06T02:49:41;16.35;;;13.10;;
57697;SDS011;43531;52.152;6.366;2023-04-06T02:50:13;15.88;;;12.50;;
57697;SDS011;43531;52.152;6.366;2023-04-06T02:50:52;15.95;;;13.18;;
57697;SDS011;43531;52.152;6.366;2023-04-06T02:51:23;17.60;;;12.85;;
57697;SDS011;43531;52.152;6.366;2023-04-06T02:51:59;16.52;;;13.75;;
57697;SDS011;43531;52.152;6.366;2023-04-06T02:52:35;17.63;;;13.75;;
57697;SDS011;43531;52.152;6.366;2023-04-06T02:53:07;17.63;;;13.50;;
57697;SDS011;43531;52.152;6.366;2023-04-06T02:53:41;18.38;;;14.10;;
57697;SDS011;43531;52.152;6.366;2023-04-06T02:54:12;16.70;;;13.27;;
57697;SDS011;43531;52.152;6.366;2023-04-06T02:54:44;16.27;;;12.73;;
57697;SDS011;43531;52.152;6.366;2023-04-06T02:55:16;14.38;;;12.52;;
57697;SDS011;43531;52.152;6.366;2023-04-06T02:55:49;17.38;;;12.13;;
57697;SDS011;43531;52.152;6.366;2023-04-06T02:56:21;18.48;;;14.30;;
57697;SDS011;43531;52.152;6.366;2023-04-06T02:56:55;14.90;;;12.90;;
57697;SDS011;43531;52.152;6.366;2023-04-06T02:57:32;15.27;;;12.98;;
57697;SDS011;43531;52.152;6.366;2023-04-06T02:58:04;17.27;;;12.40;;
57697;SDS011;43531;52.152;6.366;2023-04-06T02:58:45;14.60;;;12.50;;
57697;SDS011;43531;52.152;6.366;2023-04-06T02:59:17;16.48;;;14.40;;
57697;SDS011;43531;52.152;6.366;2023-04-06T02:59:58;15.90;;;12.15;;
57697;SDS011;43531;52.152;6.366;2023-04-06T03:00:38;16.30;;;12.73;;
57697;SDS011;43531;52.152;6.366;2023-04-06T03:01:10;14.80;;;12.48;;
57697;SDS011;43531;52.152;6.366;2023-04-06T03:01:43;15.20;;;13.18;;
57697;SDS011;43531;52.152;6.366;2023-04-06T03:02:14;16.77;;;13.05;;
57697;SDS011;43531;52.152;6.366;2023-04-06T03:02:47;16.90;;;12.32;;
57697;SDS011;43531;52.152;6.366;2023-04-06T03:03:20;15.80;;;12.15;;
57697;SDS011;43531;52.152;6.366;2023-04-06T03:03:52;15.73;;;13.98;;
57697;SDS011;43531;52.152;6.366;2023-04-06T03:04:28;15.13;;;12.88;;
57697;SDS011;43531;52.152;6.366;2023-04-06T03:05:02;19.35;;;13.20;;
57697;SDS011;43531;52.152;6.366;2023-04-06T03:05:38;16.45;;;12.35;;
57697;SDS011;43531;52.152;6.366;2023-04-06T03:06:10;19.02;;;13.65;;
57697;SDS011;43531;52.152;6.366;2023-04-06T03:06:42;19.90;;;14.68;;
57697;SDS011;43531;52.152;6.366;2023-04-06T03:07:23;19.98;;;13.57;;
57697;SDS011;43531;52.152;6.366;2023-04-06T03:07:55;16.38;;;13.50;;
57697;SDS011;43531;52.152;6.366;2023-04-06T03:08:39;16.77;;;12.55;;
57697;SDS011;43531;52.152;6.366;2023-04-06T03:09:12;18.85;;;13.65;;
57697;SDS011;43531;52.152;6.366;2023-04-06T03:09:47;21.67;;;13.10;;
57697;SDS011;43531;52.152;6.366;2023-04-06T03:10:19;16.90;;;14.45;;
57697;SDS011;43531;52.152;6.366;2023-04-06T03:10:52;15.75;;;13.13;;
57697;SDS011;43531;52.152;6.366;2023-04-06T03:11:24;13.35;;;11.95;;
57697;SDS011;43531;52.152;6.366;2023-04-06T03:11:57;16.20;;;14.30;;
57697;SDS011;43531;52.152;6.366;2023-04-06T03:12:30;15.00;;;13.05;;
57697;SDS011;43531;52.152;6.366;2023-04-06T03:13:21;15.63;;;12.55;;
57697;SDS011;43531;52.152;6.366;2023-04-06T03:13:56;16.13;;;14.05;;
57697;SDS011;43531;52.152;6.366;2023-04-06T03:14:28;16.73;;;14.38;;
57697;SDS011;43531;52.152;6.366;2023-04-06T03:15:00;17.13;;;12.75;;
57697;SDS011;43531;52.152;6.366;2023-04-06T03:15:32;15.27;;;13.68;;
57697;SDS011;43531;52.152;6.366;2023-04-06T03:16:14;16.52;;;12.63;;
57697;SDS011;43531;52.152;6.366;2023-04-06T03:16:47;14.75;;;13.15;;
57697;SDS011;43531;52.152;6.366;2023-04-06T03:17:23;20.52;;;14.30;;
57697;SDS011;43531;52.152;6.366;2023-04-06T03:17:57;19.67;;;14.35;;
57697;SDS011;43531;52.152;6.366;2023-04-06T03:18:44;18.35;;;13.70;;
57697;SDS011;43531;52.152;6.366;2023-04-06T03:19:17;19.58;;;13.88;;
57697;SDS011;43531;52.152;6.366;2023-04-06T03:19:49;15.60;;;13.30;;
57697;SDS011;43531;52.152;6.366;2023-04-06T03:20:20;19.85;;;14.18;;